Time;durP1;ratioP1;P1;durP2;ratioP2;P2;SDS_P1;SDS_P2;PMS_P1;PMS_P2;Temp;Humidity;BMP_temperature;BMP_pressure;BME280_temperature;BME280_humidity;BME280_pressure;Samples;Min_cycle;Max_cycle;Signal;HPM_P1;HPM_P2
2021/07/20 00:01:30;;;;;;;16.02;10.15;;;;;;;17.77;61.43;98518.16;5093817;28;20109;-69
2021/07/20 00:03:56;;;;;;;18.50;10.63;;;;;;;17.76;61.33;98517.34;5090142;28;20128;-70
2021/07/20 00:06:21;;;;;;;19.05;10.70;;;;;;;17.70;61.34;98513.97;5091694;28;20474;-70
2021/07/20 00:08:47;;;;;;;21.58;10.68;;;;;;;17.64;61.82;98517.31;5090705;28;20075;-70
2021/07/20 00:11:13;;;;;;;18.67;10.90;;;;;;;17.61;61.67;98501.38;5095593;28;20109;-71
2021/07/20 00:13:38;;;;;;;19.52;10.68;;;;;;;17.58;61.72;98502.84;5093219;28;20076;-71
2021/07/20 00:16:04;;;;;;;21.13;11.77;;;;;;;17.51;61.83;98506.19;5091164;28;20413;-71
2021/07/20 00:18:36;;;;;;;22.80;11.40;;;;;;;17.47;61.87;98504.44;5091523;28;20031;-70
2021/07/20 00:21:07;;;;;;;18.25;10.38;;;;;;;17.43;62.02;98501.53;5089397;28;20466;-71
2021/07/20 00:23:34;;;;;;;22.58;12.25;;;;;;;17.42;61.81;98502.69;5089188;28;20020;-71
2021/07/20 00:25:59;;;;;;;17.90;10.52;;;;;;;17.41;61.84;98503.81;5095139;28;20024;-72
2021/07/20 00:28:25;;;;;;;23.92;13.40;;;;;;;17.35;62.27;98506.00;5093480;28;20026;-71
2021/07/20 00:30:51;;;;;;;23.50;12.30;;;;;;;17.32;62.28;98489.25;5090217;28;20030;-71
2021/07/20 00:33:17;;;;;;;18.77;10.85;;;;;;;17.26;62.08;98489.47;5091839;28;20460;-71
2021/07/20 00:35:42;;;;;;;20.08;11.02;;;;;;;17.22;62.38;98488.53;5092827;28;20024;-70
2021/07/20 00:38:08;;;;;;;23.63;12.38;;;;;;;17.15;62.53;98485.47;5089821;28;20028;-69
2021/07/20 00:40:34;;;;;;;25.38;12.18;;;;;;;17.11;62.36;98488.13;5091023;28;20035;-72
2021/07/20 00:43:00;;;;;;;23.77;11.77;;;;;;;17.06;62.67;98480.03;5095105;28;20030;-71
2021/07/20 00:45:27;;;;;;;17.90;9.65;;;;;;;17.04;62.85;98484.28;5092816;28;20028;-71
2021/07/20 00:47:52;;;;;;;24.35;12.40;;;;;;;17.00;63.25;98470.28;5091650;28;20020;-71
2021/07/20 00:50:22;;;;;;;23.67;11.75;;;;;;;16.99;62.67;98477.00;5090579;28;20020;-71
2021/07/20 00:52:48;;;;;;;20.55;10.88;;;;;;;16.98;63.16;98472.59;5091209;28;20016;-71
2021/07/20 00:55:14;;;;;;;23.15;11.93;;;;;;;16.98;63.83;98467.06;5089653;28;20054;-71
2021/07/20 00:57:41;;;;;;;22.35;11.63;;;;;;;16.93;63.47;98472.75;5089545;28;20032;-71
2021/07/20 01:00:12;;;;;;;22.10;11.32;;;;;;;16.94;63.52;98472.41;5091316;28;20381;-70
2021/07/20 01:02:38;;;;;;;21.75;11.48;;;;;;;16.92;63.41;98463.63;5090534;28;20118;-71
2021/07/20 01:05:11;;;;;;;23.92;12.07;;;;;;;16.92;63.27;98463.63;5091528;28;20028;-71
2021/07/20 01:07:38;;;;;;;20.92;10.45;;;;;;;16.89;63.72;98469.88;5088151;28;20029;-70
2021/07/20 01:10:06;;;;;;;23.27;11.98;;;;;;;16.87;63.60;98461.09;5089387;28;20036;-71
2021/07/20 01:12:35;;;;;;;28.70;12.25;;;;;;;16.85;63.85;98454.25;5089870;28;20034;-71
2021/07/20 01:15:04;;;;;;;22.10;10.52;;;;;;;16.80;64.76;98460.81;5089350;28;20020;-70
2021/07/20 01:17:30;;;;;;;24.77;12.10;;;;;;;16.73;64.28;98468.84;5093585;28;20020;-71
2021/07/20 01:19:55;;;;;;;19.27;10.07;;;;;;;16.69;64.31;98462.34;5095035;28;20378;-71
2021/07/20 01:22:29;;;;;;;24.98;12.10;;;;;;;16.64;64.31;98457.84;5092492;28;20020;-71
2021/07/20 01:24:58;;;;;;;23.58;12.18;;;;;;;16.64;64.79;98460.59;5100458;28;20028;-71
2021/07/20 01:27:23;;;;;;;21.67;10.88;;;;;;;16.63;64.72;98457.00;5097281;28;20381;-72
2021/07/20 01:29:50;;;;;;;20.42;11.38;;;;;;;16.61;64.06;98462.06;5091053;28;20028;-71
2021/07/20 01:32:17;;;;;;;19.38;10.88;;;;;;;16.63;64.12;98456.22;5090604;28;20036;-71
2021/07/20 01:34:44;;;;;;;22.67;11.75;;;;;;;16.64;63.99;98453.09;5090562;28;20032;-71
2021/07/20 01:37:13;;;;;;;26.02;12.07;;;;;;;16.60;64.33;98457.69;5090111;28;20028;-71
2021/07/20 01:39:41;;;;;;;22.77;12.25;;;;;;;16.58;64.02;98456.41;5089665;28;20024;-71
2021/07/20 01:42:07;;;;;;;22.63;10.23;;;;;;;16.53;64.40;98457.41;5092197;28;20107;-71
2021/07/20 01:44:33;;;;;;;21.85;10.85;;;;;;;16.51;64.27;98456.94;5093809;28;20126;-72
2021/07/20 01:46:58;;;;;;;17.67;9.52;;;;;;;16.46;64.36;98466.25;5093523;28;20028;-71
2021/07/20 01:49:27;;;;;;;23.95;11.57;;;;;;;16.41;64.50;98463.69;5092580;28;20012;-71
2021/07/20 01:51:54;;;;;;;21.45;10.73;;;;;;;16.39;64.50;98457.66;5092973;28;20023;-72
2021/07/20 01:54:20;;;;;;;21.10;9.80;;;;;;;16.37;65.03;98452.47;5093719;28;20111;-71
2021/07/20 01:56:49;;;;;;;21.45;10.13;;;;;;;16.36;64.66;98459.16;5093124;28;20028;-72
2021/07/20 01:59:15;;;;;;;20.35;10.65;;;;;;;16.39;65.45;98448.56;5093446;28;20024;-71
2021/07/20 02:02:00;;;;;;;19.13;9.82;;;;;;;16.40;64.88;98455.72;5092977;28;20035;-70
2021/07/20 02:04:45;;;;;;;19.67;10.13;;;;;;;16.44;64.63;98460.25;5090223;28;20035;-70
2021/07/20 02:09:58;;;;;;;21.58;9.88;;;;;;;16.49;65.33;98462.03;5093162;28;20565;-70
2021/07/20 02:12:35;;;;;;;23.20;10.57;;;;;;;16.49;64.97;98467.56;5092987;28;20150;-71
2021/07/20 02:15:03;;;;;;;17.08;9.82;;;;;;;16.49;64.55;98460.03;5093164;28;20059;-71
2021/07/20 02:17:30;;;;;;;20.45;10.23;;;;;;;16.53;64.82;98462.94;5092418;28;20024;-70
2021/07/20 02:20:11;;;;;;;21.63;10.15;;;;;;;16.56;64.69;98473.34;5092514;28;20157;-69
2021/07/20 02:22:37;;;;;;;20.33;9.65;;;;;;;16.51;64.10;98471.59;5093018;28;20024;-72
2021/07/20 02:25:04;;;;;;;22.42;10.40;;;;;;;16.53;64.33;98476.78;5092094;28;20028;-71
2021/07/20 02:27:30;;;;;;;22.38;10.70;;;;;;;16.55;64.09;98474.50;5092377;28;20504;-73
2021/07/20 02:30:00;;;;;;;20.40;9.52;;;;;;;16.53;63.99;98482.31;5092224;28;20146;-71
2021/07/20 02:32:28;;;;;;;20.23;9.77;;;;;;;16.54;64.43;98478.41;5092341;28;20028;-71
2021/07/20 02:34:57;;;;;;;16.08;8.65;;;;;;;16.49;64.16;98478.63;5092514;28;20027;-72
2021/07/20 02:37:23;;;;;;;18.60;9.80;;;;;;;16.47;64.43;98480.91;5092530;28;20028;-71
2021/07/20 02:39:49;;;;;;;19.98;9.65;;;;;;;16.48;64.43;98479.78;5091397;28;20024;-72
2021/07/20 02:42:18;;;;;;;19.92;9.27;;;;;;;16.48;63.97;98480.56;5092069;28;20114;-72
2021/07/20 02:44:44;;;;;;;22.17;9.82;;;;;;;16.50;64.23;98483.81;5091141;28;20046;-72
2021/07/20 02:47:10;;;;;;;16.67;9.10;;;;;;;16.47;64.54;98484.47;5090850;28;20023;-71
2021/07/20 02:49:38;;;;;;;17.88;9.77;;;;;;;16.42;64.02;98483.88;5090587;28;20032;-72
2021/07/20 02:52:05;;;;;;;17.35;9.77;;;;;;;16.37;64.19;98474.63;5089576;28;20162;-71
2021/07/20 02:54:32;;;;;;;21.80;11.40;;;;;;;16.36;64.43;98486.00;5089943;28;20055;-71
2021/07/20 02:56:58;;;;;;;22.98;10.63;;;;;;;16.34;64.75;98486.34;5090590;28;20016;-72
2021/07/20 02:59:26;;;;;;;20.80;10.73;;;;;;;16.30;64.33;98488.16;5090522;28;20450;-72
2021/07/20 03:01:55;;;;;;;21.10;10.23;;;;;;;16.27;64.72;98475.00;5091800;28;20024;-71
2021/07/20 03:04:21;;;;;;;20.33;9.23;;;;;;;16.25;64.67;98485.59;5090446;28;20421;-72
2021/07/20 03:06:52;;;;;;;17.08;9.05;;;;;;;16.24;64.24;98478.44;5091896;28;20036;-72
2021/07/20 03:09:20;;;;;;;19.98;9.52;;;;;;;16.19;64.83;98475.84;5092373;28;20054;-72
2021/07/20 03:11:50;;;;;;;17.98;9.15;;;;;;;16.16;64.41;98476.50;5091913;28;20036;-72
2021/07/20 03:14:20;;;;;;;20.55;10.48;;;;;;;16.18;64.65;98482.53;5092018;28;20084;-73
2021/07/20 03:16:46;;;;;;;19.85;10.02;;;;;;;16.20;64.64;98481.06;5091027;28;20409;-72
2021/07/20 03:19:13;;;;;;;19.00;9.70;;;;;;;16.21;64.39;98485.44;5105179;28;20028;-72
2021/07/20 03:21:40;;;;;;;19.00;10.07;;;;;;;16.20;64.62;98488.53;5102307;28;20074;-72
2021/07/20 03:24:07;;;;;;;23.85;10.80;;;;;;;16.14;64.28;98496.22;5099953;28;20111;-72
2021/07/20 03:26:35;;;;;;;22.70;10.35;;;;;;;16.12;64.72;98484.69;5096317;28;20025;-72
2021/07/20 03:29:03;;;;;;;18.08;9.75;;;;;;;16.13;64.51;98483.53;5094845;28;20670;-72
2021/07/20 03:31:29;;;;;;;22.33;10.73;;;;;;;16.12;65.07;98492.97;5091489;28;20024;-72
2021/07/20 03:33:55;;;;;;;22.23;10.55;;;;;;;16.10;64.34;98488.94;5099639;28;20124;-73
2021/07/20 03:36:21;;;;;;;20.25;10.07;;;;;;;16.12;64.45;98483.84;5105506;28;20024;-72
2021/07/20 03:38:46;;;;;;;24.90;11.13;;;;;;;16.12;64.72;98486.63;5104029;28;20081;-72
2021/07/20 03:41:12;;;;;;;25.33;11.13;;;;;;;16.09;64.66;98487.31;5098981;28;20032;-73
2021/07/20 03:43:39;;;;;;;24.40;10.48;;;;;;;16.07;64.84;98480.16;5096986;28;20028;-72
2021/07/20 03:46:04;;;;;;;22.13;10.73;;;;;;;16.06;64.56;98484.06;5093931;28;20107;-72
2021/07/20 03:48:30;;;;;;;23.70;10.85;;;;;;;16.02;64.92;98485.88;5091798;28;20720;-72
2021/07/20 03:50:56;;;;;;;22.27;11.88;;;;;;;15.99;64.74;98477.41;5104164;28;20393;-72
2021/07/20 03:53:25;;;;;;;19.50;9.95;;;;;;;15.93;65.27;98480.34;5105199;28;20016;-72
2021/07/20 03:55:54;;;;;;;24.02;11.63;;;;;;;15.91;64.97;98481.84;5102069;28;20066;-72
2021/07/20 03:58:20;;;;;;;42.22;22.17;;;;;;;15.89;65.35;98481.34;5098612;28;20488;-72
2021/07/20 04:00:49;;;;;;;29.27;15.65;;;;;;;15.87;65.45;98490.00;5094370;28;20028;-72
2021/07/20 04:03:22;;;;;;;31.73;14.60;;;;;;;15.86;65.27;98493.91;5090834;28;20055;-73
2021/07/20 04:05:50;;;;;;;24.40;11.32;;;;;;;15.84;65.64;98484.25;5092864;28;20109;-71
2021/07/20 04:08:19;;;;;;;20.80;10.57;;;;;;;15.82;65.52;98479.06;5102387;28;20058;-72
2021/07/20 04:10:46;;;;;;;22.98;10.30;;;;;;;15.86;66.22;98479.22;5100136;28;20114;-72
2021/07/20 04:13:13;;;;;;;19.63;9.73;;;;;;;15.87;65.78;98480.88;5098444;28;20024;-71
2021/07/20 04:16:06;;;;;;;23.65;10.63;;;;;;;15.91;66.68;98481.84;5096917;28;20024;-72
2021/07/20 04:18:34;;;;;;;19.00;9.63;;;;;;;15.86;65.94;98474.53;5089351;28;20039;-72
2021/07/20 04:21:02;;;;;;;16.17;8.63;;;;;;;15.87;66.09;98470.63;5093281;28;20016;-72
2021/07/20 04:23:28;;;;;;;17.58;9.07;;;;;;;15.93;65.89;98477.59;5092069;28;20040;-72
2021/07/20 04:25:55;;;;;;;20.50;9.88;;;;;;;15.98;65.77;98471.06;5099860;28;20370;-72
2021/07/20 04:28:22;;;;;;;20.38;9.10;;;;;;;16.01;66.18;98470.41;5102851;28;20054;-72
2021/07/20 04:30:48;;;;;;;16.55;9.27;;;;;;;15.99;65.79;98471.88;5096576;28;20016;-72
2021/07/20 04:33:15;;;;;;;21.42;9.40;;;;;;;16.03;66.10;98473.66;5093569;28;20028;-72
2021/07/20 04:35:42;;;;;;;21.67;9.40;;;;;;;16.03;65.72;98473.66;5092478;28;20024;-71
2021/07/20 04:38:11;;;;;;;19.02;9.60;;;;;;;16.09;66.35;98481.78;5094161;28;20073;-71
2021/07/20 04:40:40;;;;;;;20.30;9.70;;;;;;;16.13;66.32;98483.53;5092638;28;20014;-71
2021/07/20 04:43:11;;;;;;;18.35;9.93;;;;;;;16.11;66.21;98487.75;5093461;28;20028;-72
2021/07/20 04:45:39;;;;;;;19.25;9.30;;;;;;;16.14;65.92;98489.84;5094499;28;20062;-72
2021/07/20 04:48:05;;;;;;;25.05;10.23;;;;;;;16.20;66.06;98496.84;5096479;28;20016;-72
2021/07/20 04:50:30;;;;;;;17.75;8.60;;;;;;;16.24;66.00;98494.22;5093075;28;20073;-72
2021/07/20 04:52:58;;;;;;;20.75;10.30;;;;;;;16.22;65.70;98491.78;5093159;28;20032;-72
2021/07/20 04:55:25;;;;;;;20.55;9.95;;;;;;;16.22;65.60;98489.84;5093826;28;20031;-72
2021/07/20 04:57:51;;;;;;;19.17;9.93;;;;;;;16.21;65.77;98496.53;5092943;28;20377;-72
2021/07/20 05:00:17;;;;;;;18.17;9.55;;;;;;;16.17;65.94;98495.56;5093397;28;20052;-72
2021/07/20 05:02:45;;;;;;;18.23;9.70;;;;;;;16.16;66.02;98501.41;5090702;28;20058;-72
2021/07/20 05:05:22;;;;;;;23.50;9.70;;;;;;;16.15;65.62;98502.56;5090772;28;20063;-72
2021/07/20 05:07:49;;;;;;;19.35;10.02;;;;;;;16.16;65.76;98502.25;5090310;28;20058;-72
2021/07/20 05:10:15;;;;;;;29.92;12.18;;;;;;;16.23;65.70;98507.25;5090071;28;20036;-72
2021/07/20 05:12:41;;;;;;;18.00;9.15;;;;;;;16.27;65.81;98502.66;5090455;28;20028;-73
2021/07/20 05:15:08;;;;;;;20.08;9.95;;;;;;;16.30;65.45;98515.84;5091184;28;20036;-72
2021/07/20 05:17:35;;;;;;;25.83;13.65;;;;;;;16.30;65.55;98515.84;5094340;28;20024;-72
2021/07/20 05:20:03;;;;;;;21.23;11.30;;;;;;;16.31;65.96;98517.47;5094569;28;20112;-72
2021/07/20 05:22:29;;;;;;;17.80;8.38;;;;;;;16.35;65.37;98518.41;5093476;28;20473;-73
2021/07/20 05:24:55;;;;;;;16.48;9.35;;;;;;;16.36;65.44;98511.75;5094148;28;20039;-72
2021/07/20 05:27:22;;;;;;;23.23;9.85;;;;;;;16.42;65.56;98515.13;5094082;28;20078;-72
2021/07/20 05:29:48;;;;;;;20.42;10.15;;;;;;;16.44;65.60;98518.38;5094308;28;20056;-72
2021/07/20 05:32:17;;;;;;;22.17;9.82;;;;;;;16.44;65.25;98518.38;5093956;28;20039;-72
2021/07/20 05:34:47;;;;;;;17.08;9.57;;;;;;;16.43;65.66;98513.97;5094296;28;20027;-72
2021/07/20 05:37:12;;;;;;;15.20;8.65;;;;;;;16.44;65.59;98521.13;5094345;28;20049;-72
2021/07/20 05:39:38;;;;;;;19.20;9.20;;;;;;;16.45;65.36;98521.97;5094245;28;20020;-72
2021/07/20 05:42:04;;;;;;;18.58;9.15;;;;;;;16.51;65.72;98526.97;5094024;28;20047;-71
2021/07/20 05:44:31;;;;;;;20.92;8.95;;;;;;;16.49;65.86;98525.69;5094050;28;20161;-71
2021/07/20 05:46:58;;;;;;;15.43;9.07;;;;;;;16.49;65.43;98523.72;5094037;28;20039;-72
2021/07/20 05:49:23;;;;;;;16.58;9.73;;;;;;;16.54;65.60;98525.47;5093697;28;20125;-72
2021/07/20 05:51:51;;;;;;;22.85;9.73;;;;;;;16.61;65.52;98525.75;5093891;28;20036;-71
2021/07/20 05:54:17;;;;;;;18.67;9.15;;;;;;;16.69;65.53;98528.81;5092358;28;20493;-71
2021/07/20 05:56:43;;;;;;;18.35;9.35;;;;;;;16.73;65.63;98529.78;5093555;28;20035;-71
2021/07/20 05:59:09;;;;;;;18.67;8.98;;;;;;;16.76;65.87;98531.88;5093875;28;20036;-72
2021/07/20 06:01:35;;;;;;;17.65;9.30;;;;;;;16.80;65.63;98541.13;5093108;28;20039;-71
2021/07/20 06:04:02;;;;;;;16.80;8.50;;;;;;;16.80;65.82;98527.28;5092772;28;20379;-72
2021/07/20 06:06:31;;;;;;;15.88;9.05;;;;;;;16.78;65.90;98529.56;5093269;28;20032;-73
2021/07/20 06:08:59;;;;;;;15.25;8.52;;;;;;;16.84;65.90;98536.56;5091804;28;20042;-73
2021/07/20 06:11:26;;;;;;;16.25;8.23;;;;;;;16.86;65.79;98537.03;5091707;28;20028;-73
2021/07/20 06:13:53;;;;;;;18.77;10.15;;;;;;;16.91;66.59;98528.50;5091626;28;20074;-71
2021/07/20 06:16:23;;;;;;;15.48;8.65;;;;;;;16.99;65.98;98540.72;5090846;28;20100;-71
2021/07/20 06:18:48;;;;;;;;;;;;;;;17.02;66.02;98536.44;5091928;28;20031;-71
2021/07/20 06:21:16;;;;;;;13.82;7.32;;;;;;;17.04;65.92;98539.69;5089545;28;19969;-72
2021/07/20 06:23:46;;;;;;;15.98;8.20;;;;;;;17.08;65.78;98543.41;5089722;28;20520;-72
2021/07/20 06:26:17;;;;;;;17.77;8.60;;;;;;;17.10;65.55;98546.66;5091739;28;20024;-73
2021/07/20 06:28:44;;;;;;;18.60;8.27;;;;;;;17.12;65.45;98547.13;5092120;28;20020;-72
2021/07/20 06:31:11;;;;;;;16.13;8.18;;;;;;;17.15;65.36;98543.69;5083429;28;20485;-72
2021/07/20 06:33:37;;;;;;;17.75;8.32;;;;;;;17.19;65.46;98546.56;5090869;28;20032;-72
2021/07/20 06:36:03;;;;;;;16.17;8.32;;;;;;;17.28;65.48;98555.63;5092420;28;20034;-72
2021/07/20 06:38:31;;;;;;;16.05;8.40;;;;;;;17.35;65.29;98550.38;5093058;28;20020;-71
2021/07/20 06:40:58;;;;;;;13.93;7.75;;;;;;;17.38;65.05;98558.00;5092877;28;20030;-72
2021/07/20 06:43:25;;;;;;;18.33;7.70;;;;;;;17.43;65.05;98548.66;5090948;28;20835;-72
2021/07/20 06:45:51;;;;;;;13.02;7.10;;;;;;;17.48;65.15;98550.44;5092048;28;20397;-70
2021/07/20 06:48:22;;;;;;;17.30;8.43;;;;;;;17.53;65.00;98553.78;5092169;28;20507;-74
2021/07/20 06:50:51;;;;;;;17.52;7.80;;;;;;;17.55;64.84;98543.16;5092909;28;20069;-73
2021/07/20 06:53:16;;;;;;;13.65;7.50;;;;;;;17.59;65.14;98546.06;5091700;28;20085;-73
2021/07/20 06:55:53;;;;;;;17.40;7.50;;;;;;;17.64;64.77;98545.84;5092104;28;20035;-72
2021/07/20 06:58:21;;;;;;;13.48;7.57;;;;;;;17.73;64.76;98551.31;5090927;28;20028;-73
2021/07/20 07:00:55;;;;;;;14.95;8.23;;;;;;;17.78;64.73;98553.06;5092351;28;20085;-72
2021/07/20 07:03:25;;;;;;;16.48;8.02;;;;;;;17.73;64.61;98545.75;5091516;28;20067;-72
2021/07/20 07:05:53;;;;;;;14.68;8.07;;;;;;;17.76;64.64;98545.06;5091358;28;20036;-73
2021/07/20 07:08:21;;;;;;;17.93;8.33;;;;;;;17.81;64.77;98542.09;5092195;28;20168;-73
2021/07/20 07:10:48;;;;;;;16.90;7.88;;;;;;;17.80;64.48;98540.47;5092388;28;20286;-74
2021/07/20 07:13:13;;;;;;;13.07;7.47;;;;;;;17.85;64.82;98537.47;5091210;28;20494;-75
2021/07/20 07:15:39;;;;;;;17.67;8.40;;;;;;;17.94;64.50;98547.66;5092041;28;20043;-74
2021/07/20 07:18:06;;;;;;;15.35;8.00;;;;;;;17.94;64.41;98536.56;5091839;28;20029;-74
2021/07/20 07:20:32;;;;;;;15.23;8.25;;;;;;;17.95;64.04;98543.75;5090864;28;20032;-73
2021/07/20 07:23:00;;;;;;;16.55;7.47;;;;;;;17.95;64.08;98536.22;5091321;28;20055;-70
2021/07/20 07:25:26;;;;;;;15.63;7.53;;;;;;;18.02;64.18;98534.88;5091304;28;20161;-72
2021/07/20 07:27:54;;;;;;;13.50;7.95;;;;;;;18.08;64.10;98537.09;5088394;28;20106;-73
2021/07/20 07:30:21;;;;;;;16.65;8.52;;;;;;;18.15;64.52;98537.31;5090370;28;20485;-72
2021/07/20 07:32:48;;;;;;;17.20;8.10;;;;;;;18.20;64.51;98535.47;5086779;28;20060;-71
2021/07/20 07:35:14;;;;;;;15.68;8.95;;;;;;;18.27;64.39;98531.00;5089894;28;20032;-72
2021/07/20 07:37:41;;;;;;;15.15;8.43;;;;;;;18.38;64.22;98536.06;5087555;28;20027;-73
2021/07/20 07:40:09;;;;;;;14.15;7.70;;;;;;;18.42;64.21;98526.72;5090486;28;20027;-73
2021/07/20 07:42:35;;;;;;;15.18;8.68;;;;;;;18.56;64.14;98534.69;5088857;28;20020;-71
2021/07/20 07:45:02;;;;;;;18.48;8.25;;;;;;;18.61;63.79;98533.63;5089709;28;20490;-71
2021/07/20 07:47:28;;;;;;;14.70;7.40;;;;;;;18.63;63.33;98527.75;5089602;28;20077;-72
2021/07/20 07:49:53;;;;;;;15.32;8.45;;;;;;;18.65;63.21;98522.66;5087894;28;20040;-72
2021/07/20 07:52:19;;;;;;;16.52;8.00;;;;;;;18.71;63.45;98527.63;5090497;28;20394;-72
2021/07/20 07:54:47;;;;;;;13.45;7.57;;;;;;;18.77;63.40;98521.81;5096487;28;20092;-72
2021/07/20 07:57:15;;;;;;;14.60;8.00;;;;;;;18.86;63.42;98528.06;5081775;28;20024;-71
2021/07/20 07:59:41;;;;;;;18.08;9.10;;;;;;;18.95;63.27;98534.28;5090247;28;20502;-72
2021/07/20 08:02:11;;;;;;;13.30;8.15;;;;;;;18.99;62.71;98531.66;5088947;28;20038;-71
2021/07/20 08:04:40;;;;;;;14.55;8.32;;;;;;;18.99;62.49;98538.00;5089957;28;20028;-74
2021/07/20 08:07:06;;;;;;;14.73;7.20;;;;;;;19.03;62.41;98527.81;5087198;28;20039;-75
2021/07/20 08:09:33;;;;;;;18.17;7.63;;;;;;;19.10;62.72;98529.19;5088001;28;20024;-74
2021/07/20 08:12:00;;;;;;;14.25;8.68;;;;;;;19.18;62.46;98515.13;5084477;28;20161;-84
2021/07/20 08:14:26;;;;;;;15.38;8.98;;;;;;;19.27;62.63;98511.41;5087453;28;20393;-76
2021/07/20 08:16:57;;;;;;;16.02;8.50;;;;;;;19.37;62.41;98516.47;5088502;28;20380;-75
2021/07/20 08:19:26;;;;;;;14.63;8.68;;;;;;;19.41;61.40;98509.03;5087754;28;20028;-74
2021/07/20 08:21:57;;;;;;;11.65;8.00;;;;;;;19.47;61.54;98509.59;5088956;28;20074;-76
2021/07/20 08:24:23;;;;;;;17.08;9.23;;;;;;;19.53;61.59;98510.94;5089773;28;20023;-77
2021/07/20 08:26:53;;;;;;;15.07;8.18;;;;;;;19.59;61.50;98503.16;5078740;28;20039;-74
2021/07/20 08:29:23;;;;;;;26.08;8.23;;;;;;;19.66;61.77;98508.13;5087066;28;20043;-75
2021/07/20 08:32:04;;;;;;;16.02;7.65;;;;;;;19.78;61.97;98511.63;5088200;28;20024;-76
2021/07/20 08:34:34;;;;;;;15.63;7.82;;;;;;;19.89;61.76;98516.72;5088507;28;20032;-74
2021/07/20 08:37:01;;;;;;;13.25;8.35;;;;;;;19.98;60.36;98514.53;5088856;28;20082;-74
2021/07/20 08:39:27;;;;;;;11.90;7.90;;;;;;;20.03;61.15;98505.94;5088633;28;20066;-77
2021/07/20 08:42:13;;;;;;;14.30;6.88;;;;;;;20.13;59.32;98515.75;5088425;28;20485;-75
2021/07/20 08:45:19;;;;;;;15.05;7.40;;;;;;;20.21;60.65;98516.72;5088692;28;20051;-74
2021/07/20 08:48:06;;;;;;;12.23;6.50;;;;;;;20.31;59.70;98510.63;5087204;28;20032;-74
2021/07/20 08:50:40;;;;;;;12.52;6.55;;;;;;;20.37;59.01;98516.72;5089625;28;20067;-74
2021/07/20 08:53:25;;;;;;;12.05;6.75;;;;;;;20.41;58.72;98509.25;5091460;28;20116;-73
2021/07/20 08:55:53;;;;;;;13.38;6.70;;;;;;;20.47;59.10;98513.38;5092595;28;20028;-73
2021/07/20 08:58:26;;;;;;;12.15;7.70;;;;;;;20.57;59.03;98514.81;5092050;28;20036;-74
2021/07/20 09:00:56;;;;;;;12.43;6.65;;;;;;;20.64;57.13;98514.16;5092943;28;20489;-74
2021/07/20 09:03:24;;;;;;;12.80;7.47;;;;;;;20.72;57.79;98509.56;5092223;28;20102;-75
2021/07/20 09:06:03;;;;;;;11.48;6.30;;;;;;;20.84;57.94;98512.25;5092991;28;20410;-75
2021/07/20 09:08:52;;;;;;;12.38;6.47;;;;;;;20.97;57.37;98510.16;5091008;28;20090;-74
2021/07/20 09:11:48;;;;;;;9.50;5.90;;;;;;;21.03;56.97;98517.03;5091672;28;20039;-73
2021/07/20 09:14:13;;;;;;;11.27;6.05;;;;;;;21.12;55.86;98508.47;5089568;28;20039;-72
2021/07/20 09:16:45;;;;;;;13.10;6.15;;;;;;;21.22;55.87;98512.66;5091053;28;20637;-74
2021/07/20 09:19:17;;;;;;;11.23;6.13;;;;;;;21.34;56.25;98506.13;5093030;28;20032;-74
2021/07/20 09:21:46;;;;;;;12.95;5.68;;;;;;;21.52;56.37;98498.94;5092411;28;20096;-75
2021/07/20 09:24:17;;;;;;;8.68;5.38;;;;;;;21.75;55.88;98511.34;5094174;28;20024;-74
2021/07/20 09:26:51;;;;;;;8.18;5.20;;;;;;;21.90;54.71;98502.03;5093653;28;20067;-74
2021/07/20 09:29:19;;;;;;;10.40;5.57;;;;;;;22.03;53.84;98502.63;5092214;28;20115;-75
2021/07/20 09:32:07;;;;;;;9.95;5.47;;;;;;;22.18;54.34;98506.50;5091699;28;20032;-75
2021/07/20 09:34:57;;;;;;;10.77;5.82;;;;;;;22.36;52.96;98505.97;5092659;28;20046;-73
2021/07/20 09:37:52;;;;;;;11.10;5.22;;;;;;;22.48;52.65;98505.00;5092372;28;20017;-73
2021/07/20 09:40:38;;;;;;;9.50;5.60;;;;;;;22.54;52.26;98507.13;5090187;28;20074;-73
2021/07/20 09:43:13;;;;;;;9.23;5.60;;;;;;;22.57;52.59;98508.34;5087538;28;20037;-73
2021/07/20 09:45:44;;;;;;;11.20;6.05;;;;;;;22.54;52.05;98507.13;5093824;28;20040;-74
2021/07/20 09:48:28;;;;;;;10.73;6.13;;;;;;;22.49;51.20;98504.63;5092727;28;20028;-74
2021/07/20 09:51:23;;;;;;;13.07;5.93;;;;;;;22.39;50.81;98511.66;5090956;28;20023;-73
2021/07/20 09:54:09;;;;;;;7.85;5.15;;;;;;;22.33;51.64;98503.94;5080529;28;20051;-74
2021/07/20 09:56:52;;;;;;;12.60;6.05;;;;;;;22.27;51.71;98498.66;5093608;28;20069;-73
2021/07/20 09:59:23;;;;;;;10.30;5.78;;;;;;;22.25;51.43;98503.03;5090888;28;20024;-71
2021/07/20 10:01:55;;;;;;;10.18;5.65;;;;;;;22.25;50.54;98489.84;5089219;28;20024;-71
2021/07/20 10:05:07;;;;;;;9.68;5.80;;;;;;;22.26;50.24;98497.03;5091486;28;20040;-71
2021/07/20 10:07:55;;;;;;;12.52;5.95;;;;;;;22.27;48.48;98492.28;5068408;28;20367;-72
2021/07/20 10:10:51;;;;;;;11.27;6.17;;;;;;;22.25;49.88;98492.63;5091784;28;20702;-72
2021/07/20 10:13:32;;;;;;;9.02;5.28;;;;;;;22.21;50.77;98488.97;5091416;28;20040;-73
2021/07/20 10:16:10;;;;;;;9.75;5.35;;;;;;;22.19;49.84;98485.78;5092051;28;20119;-72
2021/07/20 10:19:05;;;;;;;11.15;4.97;;;;;;;22.04;50.50;98489.50;5092673;28;20427;-71
2021/07/20 10:21:34;;;;;;;10.00;5.10;;;;;;;21.96;50.28;98499.75;5091817;28;20028;-73
2021/07/20 10:24:14;;;;;;;7.32;5.07;;;;;;;21.88;51.23;98498.78;5092330;28;20047;-72
2021/07/20 10:27:01;;;;;;;10.80;4.70;;;;;;;21.77;51.34;98500.59;5088288;28;20039;-73
2021/07/20 10:29:48;;;;;;;8.43;4.93;;;;;;;21.65;51.46;98498.78;5090891;28;20381;-71
2021/07/20 10:32:23;;;;;;;9.63;4.93;;;;;;;21.52;51.82;98493.34;5091452;28;20521;-72
2021/07/20 10:35:01;;;;;;;9.85;5.05;;;;;;;21.44;52.00;98499.94;5091564;28;20477;-72
2021/07/20 10:37:29;;;;;;;8.10;3.95;;;;;;;21.38;52.39;98501.41;5091815;28;20496;-73
2021/07/20 10:40:02;;;;;;;9.32;4.32;;;;;;;21.29;52.57;98501.66;5089477;28;20024;-72
2021/07/20 10:42:44;;;;;;;8.68;4.35;;;;;;;21.20;52.83;98498.28;5090447;28;20065;-73
2021/07/20 10:45:12;;;;;;;8.85;4.70;;;;;;;21.15;52.92;98499.38;5091186;28;20499;-72
2021/07/20 10:47:54;;;;;;;7.20;5.03;;;;;;;21.05;52.90;98497.97;5085250;28;20028;-74
2021/07/20 10:50:27;;;;;;;9.55;4.82;;;;;;;21.01;53.48;98493.50;5090420;28;20115;-73
2021/07/20 10:53:05;;;;;;;8.02;4.72;;;;;;;20.97;53.17;98493.44;5090512;28;20039;-74
2021/07/20 10:56:02;;;;;;;7.05;4.57;;;;;;;20.90;53.15;98496.84;5090448;28;20028;-73
2021/07/20 10:58:46;;;;;;;10.00;5.18;;;;;;;20.84;53.35;98489.16;5090438;28;20970;-73
2021/07/20 11:01:21;;;;;;;6.95;4.55;;;;;;;20.83;53.67;98491.13;5089881;28;20412;-72
2021/07/20 11:03:59;;;;;;;10.77;4.68;;;;;;;20.81;53.88;98487.88;5091869;28;20058;-73
2021/07/20 11:06:25;;;;;;;8.90;4.78;;;;;;;20.83;53.84;98479.97;5090391;28;20369;-72
2021/07/20 11:08:57;;;;;;;6.53;4.20;;;;;;;20.87;54.35;98480.06;5092007;28;20020;-73
2021/07/20 11:11:30;;;;;;;9.25;4.88;;;;;;;20.95;54.26;98474.25;5090371;28;20027;-73
2021/07/20 11:13:59;;;;;;;7.75;4.63;;;;;;;21.02;53.93;98473.59;5087903;28;20043;-74
2021/07/20 11:16:26;;;;;;;7.28;3.80;;;;;;;21.08;53.68;98474.13;5089963;28;20062;-74
2021/07/20 11:18:53;;;;;;;10.95;4.95;;;;;;;21.14;53.40;98472.66;5091475;28;20501;-73
2021/07/20 11:21:24;;;;;;;5.93;4.18;;;;;;;21.21;53.26;98464.44;5088553;28;20134;-72
2021/07/20 11:23:51;;;;;;;6.72;4.07;;;;;;;21.33;52.92;98471.03;5074014;28;20393;-72
2021/07/20 11:26:19;;;;;;;5.80;4.05;;;;;;;21.37;53.06;98472.72;5091014;28;20035;-72
2021/07/20 11:28:45;;;;;;;10.13;4.78;;;;;;;21.54;52.80;98470.63;5091482;28;20381;-72
2021/07/20 11:31:24;;;;;;;10.82;5.22;;;;;;;21.65;52.67;98465.28;5087328;28;20020;-73
2021/07/20 11:33:53;;;;;;;;;;;;;;;21.73;51.51;98464.25;5089150;28;20036;-72
2021/07/20 11:36:23;;;;;;;10.30;5.25;;;;;;;21.79;51.24;98465.53;5088893;28;20273;-73
2021/07/20 11:38:52;;;;;;;;;;;;;;;21.90;50.53;98462.16;5089464;28;20024;-72
2021/07/20 11:41:29;;;;;;;9.10;4.88;;;;;;;22.06;49.57;98467.59;5086063;28;19930;-73